createdAt,value
2022-08-09T00:00:28.253Z,25.50
2022-08-09T00:06:18.878Z,19.90
2022-08-09T00:11:24.504Z,31.50
2022-08-09T00:16:36.754Z,24.40
2022-08-09T00:21:55.441Z,43.40
2022-08-09T00:27:02.591Z,63.50
2022-08-09T00:32:07.198Z,49.70
2022-08-09T00:37:11.311Z,43.00
2022-08-09T00:44:16.261Z,33.80
2022-08-09T00:47:39.932Z,17.20
2022-08-09T00:52:45.128Z,24.50
2022-08-09T00:57:49.894Z,22.50
2022-08-09T01:03:46.317Z,23.80
2022-08-09T01:09:11.009Z,41.40
2022-08-09T01:14:29.233Z,17.70
2022-08-09T01:20:10.387Z,15.50
2022-08-09T01:25:50.969Z,12.70
2022-08-09T01:30:59.951Z,16.30
2022-08-09T01:36:20.959Z,23.60
2022-08-09T01:41:30.850Z,18.70
2022-08-09T01:46:47.872Z,12.70
2022-08-09T01:52:07.406Z,22.60
2022-08-09T01:57:18.625Z,36.00
2022-08-09T02:02:32.691Z,30.70
2022-08-09T02:08:40.414Z,28.30
2022-08-09T02:13:14.994Z,17.40
2022-08-09T02:23:43.163Z,31.60
2022-08-09T02:29:06.955Z,18.30
2022-08-09T02:34:41.354Z,20.70
2022-08-09T02:40:10.666Z,12.40
2022-08-09T02:45:28.716Z,32.60
2022-08-09T02:50:45.788Z,22.10
2022-08-09T02:55:58.622Z,24.20
2022-08-09T03:01:06.390Z,19.30
2022-08-09T03:06:15.357Z,16.40
2022-08-09T03:12:05.238Z,17.40
2022-08-09T03:16:48.733Z,15.90
2022-08-09T03:21:54.261Z,14.70
2022-08-09T03:26:59.768Z,20.30
2022-08-09T03:32:08.571Z,23.50
2022-08-09T03:37:56.662Z,18.90
2022-08-09T03:42:37.681Z,17.60
2022-08-09T03:47:46.529Z,20.10
2022-08-09T03:58:06.369Z,21.70
2022-08-09T04:03:35.303Z,18.50
2022-08-09T04:08:53.551Z,20.20
2022-08-09T04:14:44.070Z,23.30
2022-08-09T04:19:30.021Z,18.40
2022-08-09T04:24:46.316Z,17.00
2022-08-09T04:29:50.774Z,18.80
2022-08-09T04:34:58.670Z,19.70
2022-08-09T04:40:08.361Z,16.50
2022-08-09T04:45:15.033Z,16.00
2022-08-09T04:50:19.722Z,14.40
2022-08-09T04:55:24.022Z,20.50
2022-08-09T05:00:31.934Z,17.10
2022-08-09T05:05:51.789Z,26.10
2022-08-09T05:10:56.956Z,13.70
2022-08-09T05:16:05.465Z,21.30
2022-08-09T05:21:09.690Z,14.20
2022-08-09T05:26:22.300Z,14.10
2022-08-09T05:36:51.368Z,21.10
2022-08-09T05:42:01.574Z,22.00
2022-08-09T05:47:08.889Z,16.50
2022-08-09T05:52:13.366Z,20.60
2022-08-09T05:57:19.175Z,13.50
2022-08-09T06:02:23.438Z,15.30
2022-08-09T06:07:28.875Z,15.60
2022-08-09T06:12:33.613Z,15.80
2022-08-09T06:17:39.837Z,12.50
2022-08-09T06:22:45.724Z,14.40
2022-08-09T06:27:51.853Z,25.40
2022-08-09T06:33:13.693Z,14.70
2022-08-09T06:38:20.584Z,18.40
2022-08-09T06:43:36.988Z,33.90
2022-08-09T06:48:45.014Z,16.30
2022-08-09T06:53:50.023Z,12.60
2022-08-09T07:00:50.913Z,14.90
2022-08-09T07:04:21.069Z,19.80
2022-08-09T07:09:53.482Z,20.10
2022-08-09T07:14:54.618Z,16.60
2022-08-09T07:19:58.764Z,20.50
2022-08-09T07:25:09.502Z,16.70
2022-08-09T07:30:15.739Z,21.30
2022-08-09T07:35:23.138Z,18.40
2022-08-09T07:40:46.284Z,17.90
2022-08-09T07:45:54.854Z,15.90
2022-08-09T07:52:03.414Z,12.10
2022-08-09T07:56:31.709Z,18.60
2022-08-09T08:01:36.553Z,18.30
2022-08-09T08:06:45.471Z,23.80
2022-08-09T08:12:24.772Z,13.50
2022-08-09T08:17:52.155Z,27.10
2022-08-09T08:22:49.957Z,17.60
2022-08-09T08:28:00.433Z,15.70
2022-08-09T08:33:05.044Z,13.10
2022-08-09T08:38:11.798Z,11.30
2022-08-09T08:43:16.533Z,15.00
2022-08-09T08:48:23.738Z,10.60
2022-08-09T08:53:37.242Z,15.00
2022-08-09T08:58:46.454Z,6.80
2022-08-09T09:03:52.581Z,9.10
2022-08-09T09:09:02.391Z,7.30
2022-08-09T09:14:27.991Z,8.30
2022-08-09T09:19:41.088Z,5.80
2022-08-09T09:24:55.553Z,7.30
2022-08-09T09:30:39.739Z,7.30
2022-08-09T09:36:02.242Z,8.10
2022-08-09T09:41:09.912Z,6.30
2022-08-09T09:51:42.576Z,8.40
2022-08-09T09:58:00.801Z,7.50
2022-08-09T10:02:19.796Z,7.00
2022-08-09T10:07:30.235Z,8.10
2022-08-09T10:12:43.771Z,8.60
2022-08-09T10:18:10.597Z,4.30
2022-08-09T10:23:20.225Z,8.80
2022-08-09T10:28:32.884Z,8.30
2022-08-09T10:34:08.451Z,7.90
2022-08-09T10:39:13.948Z,5.50
2022-08-09T10:44:24.739Z,7.90
2022-08-09T10:50:15.078Z,8.80
2022-08-09T10:55:49.186Z,8.80
2022-08-09T11:03:02.060Z,7.90
2022-08-09T11:06:24.719Z,5.40
2022-08-09T11:11:58.710Z,6.60
2022-08-09T11:17:25.056Z,9.40
2022-08-09T11:22:41.652Z,7.40
2022-08-09T11:28:05.017Z,4.30
2022-08-09T11:33:20.350Z,5.50
2022-08-09T11:38:35.013Z,18.80
2022-08-09T11:43:52.644Z,8.20
2022-08-09T11:48:59.312Z,11.20
2022-08-09T11:54:27.555Z,8.30
2022-08-09T11:59:34.550Z,8.30
2022-08-09T12:09:50.686Z,3.90
2022-08-09T12:15:03.858Z,6.30
2022-08-09T12:20:24.136Z,7.30
2022-08-09T12:25:37.098Z,6.70
2022-08-09T12:30:45.793Z,6.40
2022-08-09T12:36:27.710Z,8.60
2022-08-09T12:41:39.713Z,3.60
2022-08-09T12:46:49.834Z,8.90
2022-08-09T12:52:00.558Z,6.20
2022-08-09T12:57:08.107Z,10.20
2022-08-09T13:02:15.232Z,11.60
2022-08-09T13:07:50.188Z,6.80
2022-08-09T13:13:09.998Z,12.30
2022-08-09T13:18:17.552Z,7.50
2022-08-09T13:24:16.965Z,7.70
2022-08-09T13:29:42.352Z,12.90
2022-08-09T13:34:46.614Z,3.40
2022-08-09T13:41:54.739Z,3.10
2022-08-09T13:45:17.517Z,2.90
2022-08-09T13:50:30.446Z,4.60
2022-08-09T13:55:36.922Z,3.80
2022-08-09T14:00:48.287Z,5.90
2022-08-09T14:06:02.671Z,7.80
2022-08-09T14:11:16.007Z,2.80
2022-08-09T14:16:28.193Z,5.60
2022-08-09T14:21:33.638Z,2.80
2022-08-09T14:26:38.121Z,5.50
2022-08-09T14:31:51.930Z,5.30
2022-08-09T14:36:58.103Z,10.20
2022-08-09T14:42:03.378Z,2.80
2022-08-09T14:47:29.089Z,3.40
2022-08-09T14:52:33.361Z,4.40
2022-08-09T14:57:43.630Z,4.90
2022-08-09T15:02:51.838Z,2.10
2022-08-09T15:07:58.163Z,5.80
2022-08-09T15:13:05.782Z,10.20
2022-08-09T15:18:14.552Z,4.90
2022-08-09T15:24:01.703Z,4.90
2022-08-09T15:28:42.698Z,3.60
2022-08-09T15:34:17.266Z,3.90
2022-08-09T15:39:24.313Z,8.40
2022-08-09T15:44:39.852Z,7.20
2022-08-09T15:49:46.299Z,5.80
2022-08-09T15:55:12.730Z,3.10
2022-08-09T16:00:25.791Z,3.20
2022-08-09T16:05:36.329Z,3.40
2022-08-09T16:10:56.919Z,6.20
2022-08-09T16:16:12.000Z,2.90
2022-08-09T16:21:25.865Z,3.60
2022-08-09T16:26:35.273Z,4.20
2022-08-09T16:32:18.559Z,4.20
2022-08-09T16:37:11.832Z,3.10
2022-08-09T16:42:16.066Z,5.40
2022-08-09T16:48:49.554Z,7.90
2022-08-09T16:52:53.279Z,3.50
2022-08-09T16:58:09.906Z,3.90
2022-08-09T17:03:22.233Z,10.80
2022-08-09T17:08:43.400Z,3.30
2022-08-09T17:14:01.792Z,7.00
2022-08-09T17:19:06.275Z,11.80
2022-08-09T17:24:28.146Z,6.50
2022-08-09T17:29:38.026Z,4.70
2022-08-09T17:35:00.974Z,2.80
2022-08-09T17:40:18.166Z,5.80
2022-08-09T17:45:27.297Z,6.80
2022-08-09T17:50:41.917Z,4.20
2022-08-09T17:56:04.716Z,3.70
2022-08-09T18:01:22.286Z,9.00
2022-08-09T18:06:32.046Z,7.60
2022-08-09T18:11:46.819Z,3.90
2022-08-09T18:17:03.991Z,3.30
2022-08-09T18:22:13.387Z,7.20
2022-08-09T18:28:02.165Z,7.50
2022-08-09T18:32:45.664Z,8.50
2022-08-09T18:37:58.982Z,6.10
2022-08-09T18:43:03.860Z,5.70
2022-08-09T18:48:08.645Z,4.70
2022-08-09T18:53:16.286Z,8.50
2022-08-09T18:58:32.046Z,8.50
2022-08-09T19:03:54.521Z,6.20
2022-08-09T19:09:07.684Z,9.00
2022-08-09T19:14:24.299Z,8.30
2022-08-09T19:19:41.639Z,6.00
2022-08-09T19:25:09.925Z,10.90
2022-08-09T19:30:22.115Z,9.50
2022-08-09T19:35:57.237Z,17.40
2022-08-09T19:40:59.952Z,21.50
2022-08-09T19:46:05.701Z,31.10
2022-08-09T19:51:10.128Z,29.40
2022-08-09T19:56:15.562Z,32.40
2022-08-09T20:01:20.196Z,21.40
2022-08-09T20:06:31.348Z,43.20
2022-08-09T20:11:48.838Z,39.40
2022-08-09T20:16:56.927Z,32.50
2022-08-09T20:22:01.508Z,19.20
2022-08-09T20:27:11.596Z,11.90
2022-08-09T20:32:30.588Z,16.20
2022-08-09T20:38:22.267Z,12.50
2022-08-09T20:43:18.404Z,22.70
2022-08-09T20:48:30.695Z,30.90
2022-08-09T20:53:39.093Z,17.40
2022-08-09T20:58:43.669Z,25.70
2022-08-09T21:04:08.414Z,42.70
2022-08-09T21:09:24.784Z,39.20
2022-08-09T21:14:40.373Z,31.20
2022-08-09T21:20:18.395Z,22.80
2022-08-09T21:25:37.610Z,30.20
2022-08-09T21:30:42.985Z,36.20
2022-08-09T21:35:51.073Z,27.70
2022-08-09T21:40:56.970Z,27.80
2022-08-09T21:46:01.414Z,38.30
2022-08-09T21:51:13.992Z,34.10
2022-08-09T21:56:34.023Z,38.20
2022-08-09T22:02:00.263Z,24.50
2022-08-09T22:07:06.569Z,27.00
2022-08-09T22:12:18.520Z,33.00
2022-08-09T22:17:33.158Z,19.10
2022-08-09T22:22:39.343Z,19.30
2022-08-09T22:27:43.723Z,23.40
2022-08-09T22:32:48.018Z,18.00
2022-08-09T22:38:03.344Z,14.20
2022-08-09T22:43:16.849Z,24.10
2022-08-09T22:48:37.021Z,24.80
2022-08-09T22:53:58.670Z,16.20
2022-08-09T22:59:57.671Z,21.40
2022-08-09T23:04:32.558Z,16.50
2022-08-09T23:09:40.986Z,18.40
2022-08-09T23:14:45.121Z,26.70
2022-08-09T23:20:07.504Z,28.00
2022-08-09T23:25:12.652Z,22.20
2022-08-09T23:30:17.971Z,25.10
2022-08-09T23:35:22.139Z,17.00
2022-08-09T23:40:26.473Z,23.40
2022-08-09T23:45:36.863Z,25.00
2022-08-09T23:50:42.782Z,26.20
2022-08-09T23:55:49.734Z,22.90
